sensor_id;sensor_type;location;lat;lon;timestamp;temperature;humidity
54642;DHT22;40536;53.194;5.728;2023-11-21T00:00:51;10.20;99.90
54642;DHT22;40536;53.194;5.728;2023-11-21T00:03:17;10.20;99.90
54642;DHT22;40536;53.194;5.728;2023-11-21T00:05:44;10.20;99.90
54642;DHT22;40536;53.194;5.728;2023-11-21T00:08:10;10.20;99.90
54642;DHT22;40536;53.194;5.728;2023-11-21T00:10:36;10.10;99.90
54642;DHT22;40536;53.194;5.728;2023-11-21T00:13:04;10.10;99.90
54642;DHT22;40536;53.194;5.728;2023-11-21T00:15:29;10.20;99.90
54642;DHT22;40536;53.194;5.728;2023-11-21T00:17:55;10.20;99.90
54642;DHT22;40536;53.194;5.728;2023-11-21T00:20:21;10.20;99.90
54642;DHT22;40536;53.194;5.728;2023-11-21T00:22:47;10.20;99.90
54642;DHT22;40536;53.194;5.728;2023-11-21T00:25:13;10.50;99.90
54642;DHT22;40536;53.194;5.728;2023-11-21T00:27:41;10.30;99.90
54642;DHT22;40536;53.194;5.728;2023-11-21T00:30:07;10.20;99.90
54642;DHT22;40536;53.194;5.728;2023-11-21T00:32:35;10.20;99.90
54642;DHT22;40536;53.194;5.728;2023-11-21T00:35:02;10.20;99.90
54642;DHT22;40536;53.194;5.728;2023-11-21T00:37:28;10.20;99.90
54642;DHT22;40536;53.194;5.728;2023-11-21T00:39:53;10.20;99.90
54642;DHT22;40536;53.194;5.728;2023-11-21T00:42:19;10.20;99.90
54642;DHT22;40536;53.194;5.728;2023-11-21T00:44:45;10.30;99.90
54642;DHT22;40536;53.194;5.728;2023-11-21T00:47:11;10.20;99.90
54642;DHT22;40536;53.194;5.728;2023-11-21T00:49:36;10.20;99.90
54642;DHT22;40536;53.194;5.728;2023-11-21T00:52:02;10.30;99.90
54642;DHT22;40536;53.194;5.728;2023-11-21T00:54:28;10.20;99.90
54642;DHT22;40536;53.194;5.728;2023-11-21T00:56:54;10.60;99.90
54642;DHT22;40536;53.194;5.728;2023-11-21T00:59:19;10.40;99.90
54642;DHT22;40536;53.194;5.728;2023-11-21T01:01:45;10.20;99.90
54642;DHT22;40536;53.194;5.728;2023-11-21T01:04:10;10.30;99.90
54642;DHT22;40536;53.194;5.728;2023-11-21T01:06:36;10.30;99.90
54642;DHT22;40536;53.194;5.728;2023-11-21T01:09:02;10.30;99.90
54642;DHT22;40536;53.194;5.728;2023-11-21T01:11:33;10.30;99.90
54642;DHT22;40536;53.194;5.728;2023-11-21T01:14:01;10.30;99.90
54642;DHT22;40536;53.194;5.728;2023-11-21T01:16:28;10.30;99.90
54642;DHT22;40536;53.194;5.728;2023-11-21T01:18:54;10.30;99.90
54642;DHT22;40536;53.194;5.728;2023-11-21T01:21:20;10.30;99.90
54642;DHT22;40536;53.194;5.728;2023-11-21T01:23:46;10.30;99.90
54642;DHT22;40536;53.194;5.728;2023-11-21T01:26:13;10.80;99.90
54642;DHT22;40536;53.194;5.728;2023-11-21T01:28:38;10.40;99.90
54642;DHT22;40536;53.194;5.728;2023-11-21T01:31:04;10.40;99.90
54642;DHT22;40536;53.194;5.728;2023-11-21T01:33:30;10.40;99.90
54642;DHT22;40536;53.194;5.728;2023-11-21T01:35:55;10.50;99.90
54642;DHT22;40536;53.194;5.728;2023-11-21T01:38:21;10.50;99.90
54642;DHT22;40536;53.194;5.728;2023-11-21T01:40:47;10.50;99.90
54642;DHT22;40536;53.194;5.728;2023-11-21T01:43:13;10.50;99.90
54642;DHT22;40536;53.194;5.728;2023-11-21T01:45:39;10.50;99.90
54642;DHT22;40536;53.194;5.728;2023-11-21T01:48:05;10.50;99.90
54642;DHT22;40536;53.194;5.728;2023-11-21T01:50:33;10.60;99.90
54642;DHT22;40536;53.194;5.728;2023-11-21T01:52:59;10.60;99.90
54642;DHT22;40536;53.194;5.728;2023-11-21T01:55:26;10.70;99.90
54642;DHT22;40536;53.194;5.728;2023-11-21T01:57:52;10.60;99.90
54642;DHT22;40536;53.194;5.728;2023-11-21T02:00:18;10.60;99.90
54642;DHT22;40536;53.194;5.728;2023-11-21T02:02:45;10.60;99.90
54642;DHT22;40536;53.194;5.728;2023-11-21T02:05:12;10.60;99.90
54642;DHT22;40536;53.194;5.728;2023-11-21T02:07:39;10.60;99.90
54642;DHT22;40536;53.194;5.728;2023-11-21T02:10:07;10.60;99.90
54642;DHT22;40536;53.194;5.728;2023-11-21T02:12:33;10.60;99.90
54642;DHT22;40536;53.194;5.728;2023-11-21T02:15:03;10.60;99.90
54642;DHT22;40536;53.194;5.728;2023-11-21T02:17:38;10.60;99.90
54642;DHT22;40536;53.194;5.728;2023-11-21T02:20:04;10.60;99.90
54642;DHT22;40536;53.194;5.728;2023-11-21T02:22:34;10.60;99.90
54642;DHT22;40536;53.194;5.728;2023-11-21T02:25:03;10.90;99.90
54642;DHT22;40536;53.194;5.728;2023-11-21T02:27:29;10.60;99.90
54642;DHT22;40536;53.194;5.728;2023-11-21T02:29:54;10.60;99.90
54642;DHT22;40536;53.194;5.728;2023-11-21T02:32:20;10.60;99.90
54642;DHT22;40536;53.194;5.728;2023-11-21T02:34:48;10.60;99.90
54642;DHT22;40536;53.194;5.728;2023-11-21T02:37:14;10.60;99.90
54642;DHT22;40536;53.194;5.728;2023-11-21T02:39:39;10.60;99.90
54642;DHT22;40536;53.194;5.728;2023-11-21T02:42:05;10.60;99.90
54642;DHT22;40536;53.194;5.728;2023-11-21T02:44:31;10.60;99.90
54642;DHT22;40536;53.194;5.728;2023-11-21T02:46:56;10.60;99.90
54642;DHT22;40536;53.194;5.728;2023-11-21T02:49:23;10.60;99.90
54642;DHT22;40536;53.194;5.728;2023-11-21T02:51:51;10.70;99.90
54642;DHT22;40536;53.194;5.728;2023-11-21T02:54:17;10.60;99.90
54642;DHT22;40536;53.194;5.728;2023-11-21T02:56:44;10.60;99.90
54642;DHT22;40536;53.194;5.728;2023-11-21T02:59:09;10.60;99.90
54642;DHT22;40536;53.194;5.728;2023-11-21T03:01:35;10.60;99.90
54642;DHT22;40536;53.194;5.728;2023-11-21T03:04:00;10.50;99.90
54642;DHT22;40536;53.194;5.728;2023-11-21T03:06:27;10.60;99.90
54642;DHT22;40536;53.194;5.728;2023-11-21T03:08:53;10.50;99.90
54642;DHT22;40536;53.194;5.728;2023-11-21T03:11:18;10.50;99.90
54642;DHT22;40536;53.194;5.728;2023-11-21T03:13:44;10.60;99.90
54642;DHT22;40536;53.194;5.728;2023-11-21T03:16:10;10.60;99.90
54642;DHT22;40536;53.194;5.728;2023-11-21T03:18:37;10.50;99.90
54642;DHT22;40536;53.194;5.728;2023-11-21T03:21:04;10.60;99.90
54642;DHT22;40536;53.194;5.728;2023-11-21T03:23:30;10.60;99.90
54642;DHT22;40536;53.194;5.728;2023-11-21T03:25:56;10.50;99.90
54642;DHT22;40536;53.194;5.728;2023-11-21T03:28:22;10.60;99.90
54642;DHT22;40536;53.194;5.728;2023-11-21T03:30:49;10.60;99.90
54642;DHT22;40536;53.194;5.728;2023-11-21T03:33:14;10.50;99.90
54642;DHT22;40536;53.194;5.728;2023-11-21T03:35:40;10.60;99.90
54642;DHT22;40536;53.194;5.728;2023-11-21T03:38:10;10.60;99.90
54642;DHT22;40536;53.194;5.728;2023-11-21T03:40:35;10.50;99.90
54642;DHT22;40536;53.194;5.728;2023-11-21T03:43:01;10.50;99.90
54642;DHT22;40536;53.194;5.728;2023-11-21T03:45:27;10.50;99.90
54642;DHT22;40536;53.194;5.728;2023-11-21T03:47:52;10.80;99.90
54642;DHT22;40536;53.194;5.728;2023-11-21T03:50:19;10.60;99.90
54642;DHT22;40536;53.194;5.728;2023-11-21T03:52:45;10.50;99.90
54642;DHT22;40536;53.194;5.728;2023-11-21T03:55:11;10.50;99.90
54642;DHT22;40536;53.194;5.728;2023-11-21T03:57:37;10.80;99.90
54642;DHT22;40536;53.194;5.728;2023-11-21T04:00:03;10.50;99.90
54642;DHT22;40536;53.194;5.728;2023-11-21T04:02:31;10.50;99.90
54642;DHT22;40536;53.194;5.728;2023-11-21T04:04:57;10.70;99.90
54642;DHT22;40536;53.194;5.728;2023-11-21T04:07:23;10.50;99.90
54642;DHT22;40536;53.194;5.728;2023-11-21T04:09:48;10.50;99.90
54642;DHT22;40536;53.194;5.728;2023-11-21T04:12:14;10.50;99.90
54642;DHT22;40536;53.194;5.728;2023-11-21T04:14:40;10.40;99.90
54642;DHT22;40536;53.194;5.728;2023-11-21T04:17:06;10.50;99.90
54642;DHT22;40536;53.194;5.728;2023-11-21T04:19:32;10.40;99.90
54642;DHT22;40536;53.194;5.728;2023-11-21T04:21:58;10.40;99.90
54642;DHT22;40536;53.194;5.728;2023-11-21T04:24:24;10.40;99.90
54642;DHT22;40536;53.194;5.728;2023-11-21T04:26:50;10.90;99.90
54642;DHT22;40536;53.194;5.728;2023-11-21T04:29:15;10.40;99.90
54642;DHT22;40536;53.194;5.728;2023-11-21T04:31:41;10.30;99.90
54642;DHT22;40536;53.194;5.728;2023-11-21T04:34:07;10.30;99.90
54642;DHT22;40536;53.194;5.728;2023-11-21T04:36:33;10.80;99.90
54642;DHT22;40536;53.194;5.728;2023-11-21T04:39:00;10.30;99.90
54642;DHT22;40536;53.194;5.728;2023-11-21T04:41:26;10.30;99.90
54642;DHT22;40536;53.194;5.728;2023-11-21T04:43:51;10.30;99.90
54642;DHT22;40536;53.194;5.728;2023-11-21T04:46:17;10.30;99.90
54642;DHT22;40536;53.194;5.728;2023-11-21T04:48:43;10.30;99.90
54642;DHT22;40536;53.194;5.728;2023-11-21T04:51:10;10.30;99.90
54642;DHT22;40536;53.194;5.728;2023-11-21T04:53:38;10.20;99.90
54642;DHT22;40536;53.194;5.728;2023-11-21T04:56:05;10.20;99.90
54642;DHT22;40536;53.194;5.728;2023-11-21T04:58:31;10.20;99.90
54642;DHT22;40536;53.194;5.728;2023-11-21T05:00:57;10.20;99.90
54642;DHT22;40536;53.194;5.728;2023-11-21T05:03:23;10.20;99.90
54642;DHT22;40536;53.194;5.728;2023-11-21T05:05:49;10.40;99.90
54642;DHT22;40536;53.194;5.728;2023-11-21T05:08:14;10.20;99.90
54642;DHT22;40536;53.194;5.728;2023-11-21T05:10:40;10.20;99.90
54642;DHT22;40536;53.194;5.728;2023-11-21T05:13:06;10.20;99.90
54642;DHT22;40536;53.194;5.728;2023-11-21T05:15:36;10.30;99.90
54642;DHT22;40536;53.194;5.728;2023-11-21T05:18:02;10.20;99.90
54642;DHT22;40536;53.194;5.728;2023-11-21T05:20:28;10.00;99.90
54642;DHT22;40536;53.194;5.728;2023-11-21T05:22:54;10.00;99.90
54642;DHT22;40536;53.194;5.728;2023-11-21T05:25:19;9.90;99.90
54642;DHT22;40536;53.194;5.728;2023-11-21T05:27:48;10.10;99.90
54642;DHT22;40536;53.194;5.728;2023-11-21T05:30:14;9.80;99.90
54642;DHT22;40536;53.194;5.728;2023-11-21T05:32:40;9.80;99.90
54642;DHT22;40536;53.194;5.728;2023-11-21T05:35:08;9.70;99.90
54642;DHT22;40536;53.194;5.728;2023-11-21T05:37:38;9.60;99.90
54642;DHT22;40536;53.194;5.728;2023-11-21T05:40:10;9.60;99.90
54642;DHT22;40536;53.194;5.728;2023-11-21T05:42:36;9.60;99.90
54642;DHT22;40536;53.194;5.728;2023-11-21T05:45:03;10.40;99.90
54642;DHT22;40536;53.194;5.728;2023-11-21T05:47:43;9.50;99.90
54642;DHT22;40536;53.194;5.728;2023-11-21T05:50:12;9.50;99.90
54642;DHT22;40536;53.194;5.728;2023-11-21T05:52:49;9.50;99.90
54642;DHT22;40536;53.194;5.728;2023-11-21T05:55:15;9.50;99.90
54642;DHT22;40536;53.194;5.728;2023-11-21T05:57:42;9.50;99.90
54642;DHT22;40536;53.194;5.728;2023-11-21T06:00:14;10.20;99.90
54642;DHT22;40536;53.194;5.728;2023-11-21T06:02:52;9.50;99.90
54642;DHT22;40536;53.194;5.728;2023-11-21T06:05:24;9.50;99.90
54642;DHT22;40536;53.194;5.728;2023-11-21T06:07:55;9.50;99.90
54642;DHT22;40536;53.194;5.728;2023-11-21T06:10:24;10.00;99.90
54642;DHT22;40536;53.194;5.728;2023-11-21T06:12:53;9.60;99.90
54642;DHT22;40536;53.194;5.728;2023-11-21T06:15:19;9.50;99.90
54642;DHT22;40536;53.194;5.728;2023-11-21T06:17:46;9.40;99.90
54642;DHT22;40536;53.194;5.728;2023-11-21T06:20:15;9.40;99.90
54642;DHT22;40536;53.194;5.728;2023-11-21T06:22:46;9.40;99.90
54642;DHT22;40536;53.194;5.728;2023-11-21T06:25:13;9.80;99.90
54642;DHT22;40536;53.194;5.728;2023-11-21T06:27:43;9.40;99.90
54642;DHT22;40536;53.194;5.728;2023-11-21T06:30:16;9.40;99.90
54642;DHT22;40536;53.194;5.728;2023-11-21T06:32:42;9.40;99.90
54642;DHT22;40536;53.194;5.728;2023-11-21T06:35:11;9.40;99.90
54642;DHT22;40536;53.194;5.728;2023-11-21T06:37:37;10.20;99.90
54642;DHT22;40536;53.194;5.728;2023-11-21T06:40:03;9.40;99.90
54642;DHT22;40536;53.194;5.728;2023-11-21T06:42:32;9.40;99.90
54642;DHT22;40536;53.194;5.728;2023-11-21T06:44:59;9.50;99.90
54642;DHT22;40536;53.194;5.728;2023-11-21T06:47:27;9.30;99.90
54642;DHT22;40536;53.194;5.728;2023-11-21T06:49:55;9.50;99.90
54642;DHT22;40536;53.194;5.728;2023-11-21T06:52:20;9.30;99.90
54642;DHT22;40536;53.194;5.728;2023-11-21T06:54:47;9.30;99.90
54642;DHT22;40536;53.194;5.728;2023-11-21T06:57:15;9.30;99.90
54642;DHT22;40536;53.194;5.728;2023-11-21T06:59:41;10.10;99.90
54642;DHT22;40536;53.194;5.728;2023-11-21T07:02:07;10.00;99.90
54642;DHT22;40536;53.194;5.728;2023-11-21T07:04:33;9.30;99.90
54642;DHT22;40536;53.194;5.728;2023-11-21T07:06:59;9.30;99.90
54642;DHT22;40536;53.194;5.728;2023-11-21T07:09:25;9.30;99.90
54642;DHT22;40536;53.194;5.728;2023-11-21T07:11:54;9.30;99.90
54642;DHT22;40536;53.194;5.728;2023-11-21T07:14:20;9.20;99.90
54642;DHT22;40536;53.194;5.728;2023-11-21T07:16:47;9.20;99.90
54642;DHT22;40536;53.194;5.728;2023-11-21T07:19:13;9.20;99.90
54642;DHT22;40536;53.194;5.728;2023-11-21T07:21:40;9.30;99.90
54642;DHT22;40536;53.194;5.728;2023-11-21T07:24:11;9.10;99.90
54642;DHT22;40536;53.194;5.728;2023-11-21T07:26:37;9.10;99.90
54642;DHT22;40536;53.194;5.728;2023-11-21T07:29:03;9.10;99.90
54642;DHT22;40536;53.194;5.728;2023-11-21T07:31:29;9.10;99.90
54642;DHT22;40536;53.194;5.728;2023-11-21T07:33:55;9.10;99.90
54642;DHT22;40536;53.194;5.728;2023-11-21T07:36:23;9.10;99.90
54642;DHT22;40536;53.194;5.728;2023-11-21T07:38:50;9.10;99.90
54642;DHT22;40536;53.194;5.728;2023-11-21T07:41:19;9.10;99.90
54642;DHT22;40536;53.194;5.728;2023-11-21T07:43:45;9.60;99.90
54642;DHT22;40536;53.194;5.728;2023-11-21T07:46:12;9.10;99.90
54642;DHT22;40536;53.194;5.728;2023-11-21T07:48:42;9.10;99.90
54642;DHT22;40536;53.194;5.728;2023-11-21T07:51:08;9.10;99.90
54642;DHT22;40536;53.194;5.728;2023-11-21T07:53:38;9.10;99.90
54642;DHT22;40536;53.194;5.728;2023-11-21T07:56:05;9.10;99.90
54642;DHT22;40536;53.194;5.728;2023-11-21T07:58:31;9.10;99.90
54642;DHT22;40536;53.194;5.728;2023-11-21T08:00:59;9.00;99.90
54642;DHT22;40536;53.194;5.728;2023-11-21T08:03:25;9.00;99.90
54642;DHT22;40536;53.194;5.728;2023-11-21T08:05:52;9.00;99.90
54642;DHT22;40536;53.194;5.728;2023-11-21T08:08:18;9.00;99.90
54642;DHT22;40536;53.194;5.728;2023-11-21T08:10:45;9.00;99.90
54642;DHT22;40536;53.194;5.728;2023-11-21T08:13:28;9.00;99.90
54642;DHT22;40536;53.194;5.728;2023-11-21T08:15:57;9.00;99.90
54642;DHT22;40536;53.194;5.728;2023-11-21T08:18:27;9.00;99.90
54642;DHT22;40536;53.194;5.728;2023-11-21T08:20:54;9.10;99.90
54642;DHT22;40536;53.194;5.728;2023-11-21T08:23:21;9.00;99.90
54642;DHT22;40536;53.194;5.728;2023-11-21T08:25:51;9.00;99.90
54642;DHT22;40536;53.194;5.728;2023-11-21T08:28:18;9.00;99.90
54642;DHT22;40536;53.194;5.728;2023-11-21T08:30:44;9.00;99.90
54642;DHT22;40536;53.194;5.728;2023-11-21T08:33:10;9.00;99.90
54642;DHT22;40536;53.194;5.728;2023-11-21T08:35:39;9.10;99.90
54642;DHT22;40536;53.194;5.728;2023-11-21T08:38:05;9.20;99.90
54642;DHT22;40536;53.194;5.728;2023-11-21T08:40:30;9.20;99.90
54642;DHT22;40536;53.194;5.728;2023-11-21T08:42:56;9.40;99.90
54642;DHT22;40536;53.194;5.728;2023-11-21T08:45:24;9.40;99.90
54642;DHT22;40536;53.194;5.728;2023-11-21T08:47:51;9.40;99.90
54642;DHT22;40536;53.194;5.728;2023-11-21T08:50:17;9.40;99.90
54642;DHT22;40536;53.194;5.728;2023-11-21T08:52:44;9.40;99.90
54642;DHT22;40536;53.194;5.728;2023-11-21T08:55:11;9.50;99.90
54642;DHT22;40536;53.194;5.728;2023-11-21T08:57:43;9.50;99.90
54642;DHT22;40536;53.194;5.728;2023-11-21T09:00:09;9.40;99.90
54642;DHT22;40536;53.194;5.728;2023-11-21T09:02:43;9.30;99.90
54642;DHT22;40536;53.194;5.728;2023-11-21T09:05:13;9.30;99.90
54642;DHT22;40536;53.194;5.728;2023-11-21T09:07:40;9.30;99.90
54642;DHT22;40536;53.194;5.728;2023-11-21T09:10:07;9.30;99.90
54642;DHT22;40536;53.194;5.728;2023-11-21T09:12:33;9.30;99.90
54642;DHT22;40536;53.194;5.728;2023-11-21T09:15:09;9.40;99.90
54642;DHT22;40536;53.194;5.728;2023-11-21T09:17:36;9.40;99.90
54642;DHT22;40536;53.194;5.728;2023-11-21T09:20:03;9.50;99.90
54642;DHT22;40536;53.194;5.728;2023-11-21T09:22:31;9.60;99.90
54642;DHT22;40536;53.194;5.728;2023-11-21T09:24:57;9.70;99.90
54642;DHT22;40536;53.194;5.728;2023-11-21T09:27:23;9.80;99.90
54642;DHT22;40536;53.194;5.728;2023-11-21T09:29:49;10.60;99.90
54642;DHT22;40536;53.194;5.728;2023-11-21T09:32:15;10.00;99.90
54642;DHT22;40536;53.194;5.728;2023-11-21T09:34:41;10.00;99.90
54642;DHT22;40536;53.194;5.728;2023-11-21T09:37:07;10.10;99.90
54642;DHT22;40536;53.194;5.728;2023-11-21T09:39:34;10.20;99.90
54642;DHT22;40536;53.194;5.728;2023-11-21T09:44:45;10.40;99.90
54642;DHT22;40536;53.194;5.728;2023-11-21T09:47:15;10.60;99.90
54642;DHT22;40536;53.194;5.728;2023-11-21T09:49:48;10.70;99.90
54642;DHT22;40536;53.194;5.728;2023-11-21T09:52:27;10.70;99.90
54642;DHT22;40536;53.194;5.728;2023-11-21T09:54:55;10.60;99.90
54642;DHT22;40536;53.194;5.728;2023-11-21T09:57:24;10.60;99.90
54642;DHT22;40536;53.194;5.728;2023-11-21T09:59:54;10.60;99.90
54642;DHT22;40536;53.194;5.728;2023-11-21T10:02:26;10.50;99.90
54642;DHT22;40536;53.194;5.728;2023-11-21T10:04:52;10.50;99.90
54642;DHT22;40536;53.194;5.728;2023-11-21T10:07:19;10.40;99.90
54642;DHT22;40536;53.194;5.728;2023-11-21T10:09:47;10.20;99.90
54642;DHT22;40536;53.194;5.728;2023-11-21T10:12:15;10.20;99.90
54642;DHT22;40536;53.194;5.728;2023-11-21T10:14:42;10.10;99.90
54642;DHT22;40536;53.194;5.728;2023-11-21T10:17:10;10.00;99.90
54642;DHT22;40536;53.194;5.728;2023-11-21T10:19:39;10.00;99.90
54642;DHT22;40536;53.194;5.728;2023-11-21T10:22:05;9.90;99.90
54642;DHT22;40536;53.194;5.728;2023-11-21T10:24:33;9.90;99.90
54642;DHT22;40536;53.194;5.728;2023-11-21T10:26:58;9.90;99.90
54642;DHT22;40536;53.194;5.728;2023-11-21T10:29:29;9.90;99.90
54642;DHT22;40536;53.194;5.728;2023-11-21T10:31:54;9.80;99.90
54642;DHT22;40536;53.194;5.728;2023-11-21T10:34:23;9.90;99.90
54642;DHT22;40536;53.194;5.728;2023-11-21T10:36:48;9.90;99.90
54642;DHT22;40536;53.194;5.728;2023-11-21T10:39:17;9.90;99.90
54642;DHT22;40536;53.194;5.728;2023-11-21T10:41:44;9.90;99.90
54642;DHT22;40536;53.194;5.728;2023-11-21T10:44:13;9.90;99.90
54642;DHT22;40536;53.194;5.728;2023-11-21T10:46:40;9.80;99.90
54642;DHT22;40536;53.194;5.728;2023-11-21T10:49:08;9.80;99.90
54642;DHT22;40536;53.194;5.728;2023-11-21T10:51:35;9.80;99.90
54642;DHT22;40536;53.194;5.728;2023-11-21T10:54:12;9.70;99.90
54642;DHT22;40536;53.194;5.728;2023-11-21T10:56:39;9.60;99.90
54642;DHT22;40536;53.194;5.728;2023-11-21T10:59:10;9.60;99.90
54642;DHT22;40536;53.194;5.728;2023-11-21T11:01:42;9.60;99.90
54642;DHT22;40536;53.194;5.728;2023-11-21T11:04:09;9.60;99.90
54642;DHT22;40536;53.194;5.728;2023-11-21T11:06:43;9.60;99.90
54642;DHT22;40536;53.194;5.728;2023-11-21T11:09:11;9.60;99.90
54642;DHT22;40536;53.194;5.728;2023-11-21T11:11:42;9.60;99.90
54642;DHT22;40536;53.194;5.728;2023-11-21T11:14:20;9.70;99.90
54642;DHT22;40536;53.194;5.728;2023-11-21T11:16:49;9.80;99.90
54642;DHT22;40536;53.194;5.728;2023-11-21T11:19:15;9.90;99.90
54642;DHT22;40536;53.194;5.728;2023-11-21T11:37:28;9.80;99.90
54642;DHT22;40536;53.194;5.728;2023-11-21T11:39:54;9.80;99.90
54642;DHT22;40536;53.194;5.728;2023-11-21T11:42:21;9.70;99.90
54642;DHT22;40536;53.194;5.728;2023-11-21T11:44:50;9.70;99.90
54642;DHT22;40536;53.194;5.728;2023-11-21T11:47:25;9.60;99.90
54642;DHT22;40536;53.194;5.728;2023-11-21T11:52:41;9.70;99.90
54642;DHT22;40536;53.194;5.728;2023-11-21T11:55:15;9.60;99.90
54642;DHT22;40536;53.194;5.728;2023-11-21T11:57:54;9.60;99.90
54642;DHT22;40536;53.194;5.728;2023-11-21T12:02:54;9.50;99.90
54642;DHT22;40536;53.194;5.728;2023-11-21T12:05:22;9.40;99.90
54642;DHT22;40536;53.194;5.728;2023-11-21T12:07:56;9.40;99.90
54642;DHT22;40536;53.194;5.728;2023-11-21T12:10:40;9.40;99.90
54642;DHT22;40536;53.194;5.728;2023-11-21T12:13:08;9.50;99.90
54642;DHT22;40536;53.194;5.728;2023-11-21T12:15:35;9.50;99.90
54642;DHT22;40536;53.194;5.728;2023-11-21T12:18:02;9.40;99.90
54642;DHT22;40536;53.194;5.728;2023-11-21T12:20:28;9.40;99.90
54642;DHT22;40536;53.194;5.728;2023-11-21T12:22:59;9.30;99.90
54642;DHT22;40536;53.194;5.728;2023-11-21T12:25:29;9.80;99.90
54642;DHT22;40536;53.194;5.728;2023-11-21T12:27:57;9.40;99.90
54642;DHT22;40536;53.194;5.728;2023-11-21T12:30:25;9.50;99.90
54642;DHT22;40536;53.194;5.728;2023-11-21T12:32:55;9.50;99.90
54642;DHT22;40536;53.194;5.728;2023-11-21T12:35:25;9.60;99.90
54642;DHT22;40536;53.194;5.728;2023-11-21T12:37:52;9.80;99.90
54642;DHT22;40536;53.194;5.728;2023-11-21T12:40:19;10.00;99.90
54642;DHT22;40536;53.194;5.728;2023-11-21T12:42:46;10.10;99.90
54642;DHT22;40536;53.194;5.728;2023-11-21T12:47:47;10.20;99.90
54642;DHT22;40536;53.194;5.728;2023-11-21T12:50:24;10.10;99.90
54642;DHT22;40536;53.194;5.728;2023-11-21T12:52:57;9.90;99.90
54642;DHT22;40536;53.194;5.728;2023-11-21T12:55:24;9.80;99.90
54642;DHT22;40536;53.194;5.728;2023-11-21T12:57:55;9.70;99.90
54642;DHT22;40536;53.194;5.728;2023-11-21T13:00:31;9.60;99.90
54642;DHT22;40536;53.194;5.728;2023-11-21T13:02:58;9.60;99.90
54642;DHT22;40536;53.194;5.728;2023-11-21T13:05:27;9.60;99.90
54642;DHT22;40536;53.194;5.728;2023-11-21T13:07:55;9.70;99.90
54642;DHT22;40536;53.194;5.728;2023-11-21T13:10:24;9.70;99.90
54642;DHT22;40536;53.194;5.728;2023-11-21T13:12:52;10.10;99.90
54642;DHT22;40536;53.194;5.728;2023-11-21T13:15:19;9.70;99.90
54642;DHT22;40536;53.194;5.728;2023-11-21T13:17:45;9.60;99.90
54642;DHT22;40536;53.194;5.728;2023-11-21T13:20:12;9.50;99.90
54642;DHT22;40536;53.194;5.728;2023-11-21T13:22:56;10.00;99.90
54642;DHT22;40536;53.194;5.728;2023-11-21T13:25:27;9.70;99.90
54642;DHT22;40536;53.194;5.728;2023-11-21T13:27:54;9.80;99.90
54642;DHT22;40536;53.194;5.728;2023-11-21T13:30:19;10.30;99.90
54642;DHT22;40536;53.194;5.728;2023-11-21T13:33:02;9.80;99.90
54642;DHT22;40536;53.194;5.728;2023-11-21T13:35:32;9.70;99.90
54642;DHT22;40536;53.194;5.728;2023-11-21T13:38:11;9.70;99.90
54642;DHT22;40536;53.194;5.728;2023-11-21T13:40:39;9.80;99.90
54642;DHT22;40536;53.194;5.728;2023-11-21T13:43:12;9.70;99.90
54642;DHT22;40536;53.194;5.728;2023-11-21T13:45:41;10.10;99.90
54642;DHT22;40536;53.194;5.728;2023-11-21T13:48:08;10.20;99.90
54642;DHT22;40536;53.194;5.728;2023-11-21T13:50:45;9.60;99.90
54642;DHT22;40536;53.194;5.728;2023-11-21T13:53:23;9.50;99.90
54642;DHT22;40536;53.194;5.728;2023-11-21T13:55:54;9.40;99.90
54642;DHT22;40536;53.194;5.728;2023-11-21T13:58:20;9.30;99.90
54642;DHT22;40536;53.194;5.728;2023-11-21T14:01:10;9.30;99.90
54642;DHT22;40536;53.194;5.728;2023-11-21T14:04:01;9.10;99.90
54642;DHT22;40536;53.194;5.728;2023-11-21T14:06:35;9.10;99.90
54642;DHT22;40536;53.194;5.728;2023-11-21T14:09:09;9.10;99.90
54642;DHT22;40536;53.194;5.728;2023-11-21T14:11:34;9.00;99.90
54642;DHT22;40536;53.194;5.728;2023-11-21T14:14:03;8.90;99.90
54642;DHT22;40536;53.194;5.728;2023-11-21T14:16:29;8.90;99.90
54642;DHT22;40536;53.194;5.728;2023-11-21T14:18:54;8.80;99.90
54642;DHT22;40536;53.194;5.728;2023-11-21T14:21:29;8.90;99.90
54642;DHT22;40536;53.194;5.728;2023-11-21T14:23:55;8.80;99.90
54642;DHT22;40536;53.194;5.728;2023-11-21T14:26:21;8.80;99.90
54642;DHT22;40536;53.194;5.728;2023-11-21T14:28:49;8.80;99.90
54642;DHT22;40536;53.194;5.728;2023-11-21T14:31:15;8.70;99.90
54642;DHT22;40536;53.194;5.728;2023-11-21T14:33:43;9.30;99.90
54642;DHT22;40536;53.194;5.728;2023-11-21T14:36:09;8.70;99.90
54642;DHT22;40536;53.194;5.728;2023-11-21T14:38:38;8.60;99.90
54642;DHT22;40536;53.194;5.728;2023-11-21T14:41:05;8.60;99.90
54642;DHT22;40536;53.194;5.728;2023-11-21T14:43:34;8.50;99.90
54642;DHT22;40536;53.194;5.728;2023-11-21T14:46:01;8.30;99.90
54642;DHT22;40536;53.194;5.728;2023-11-21T14:48:29;8.30;99.90
54642;DHT22;40536;53.194;5.728;2023-11-21T14:51:13;8.30;99.90
54642;DHT22;40536;53.194;5.728;2023-11-21T14:53:58;8.20;99.90
54642;DHT22;40536;53.194;5.728;2023-11-21T14:56:34;8.20;99.90
54642;DHT22;40536;53.194;5.728;2023-11-21T14:59:02;8.10;99.90
54642;DHT22;40536;53.194;5.728;2023-11-21T15:01:32;8.10;99.90
54642;DHT22;40536;53.194;5.728;2023-11-21T15:04:21;8.00;99.90
54642;DHT22;40536;53.194;5.728;2023-11-21T15:07:06;8.20;99.90
54642;DHT22;40536;53.194;5.728;2023-11-21T15:09:32;7.90;99.90
54642;DHT22;40536;53.194;5.728;2023-11-21T15:11:59;7.90;99.90
54642;DHT22;40536;53.194;5.728;2023-11-21T15:14:47;7.90;99.90
54642;DHT22;40536;53.194;5.728;2023-11-21T15:17:15;7.80;99.90
54642;DHT22;40536;53.194;5.728;2023-11-21T15:19:48;7.80;99.90
54642;DHT22;40536;53.194;5.728;2023-11-21T15:22:14;7.80;99.90
54642;DHT22;40536;53.194;5.728;2023-11-21T15:24:42;7.70;99.90
54642;DHT22;40536;53.194;5.728;2023-11-21T15:27:10;7.70;99.90
54642;DHT22;40536;53.194;5.728;2023-11-21T15:29:36;7.60;99.90
54642;DHT22;40536;53.194;5.728;2023-11-21T15:32:02;7.70;99.90
54642;DHT22;40536;53.194;5.728;2023-11-21T15:34:28;7.50;99.90
54642;DHT22;40536;53.194;5.728;2023-11-21T15:36:55;7.50;99.90
54642;DHT22;40536;53.194;5.728;2023-11-21T15:39:21;7.50;99.90
54642;DHT22;40536;53.194;5.728;2023-11-21T15:41:57;7.60;99.90
54642;DHT22;40536;53.194;5.728;2023-11-21T15:44:24;7.50;99.90
54642;DHT22;40536;53.194;5.728;2023-11-21T15:46:52;7.50;99.90
54642;DHT22;40536;53.194;5.728;2023-11-21T15:49:17;7.10;99.90
54642;DHT22;40536;53.194;5.728;2023-11-21T15:51:47;7.00;99.90
54642;DHT22;40536;53.194;5.728;2023-11-21T15:54:23;6.90;99.90
54642;DHT22;40536;53.194;5.728;2023-11-21T15:56:50;6.90;99.90
54642;DHT22;40536;53.194;5.728;2023-11-21T15:59:17;6.80;99.90
54642;DHT22;40536;53.194;5.728;2023-11-21T16:01:43;7.00;99.90
54642;DHT22;40536;53.194;5.728;2023-11-21T16:04:13;7.50;99.90
54642;DHT22;40536;53.194;5.728;2023-11-21T16:06:45;7.20;99.90
54642;DHT22;40536;53.194;5.728;2023-11-21T16:09:12;6.70;99.90
54642;DHT22;40536;53.194;5.728;2023-11-21T16:11:46;6.70;99.90